Time;durP1;ratioP1;P1;durP2;ratioP2;P2;SDS_P1;SDS_P2;PMS_P1;PMS_P2;Temp;Humidity;BMP_temperature;BMP_pressure;BME280_temperature;BME280_humidity;BME280_pressure;Samples;Min_cycle;Max_cycle;Signal;HPM_P1;HPM_P2
2022/06/14 00:01:44;;;;;;;7.65;2.20;;;;;;;19.93;100.00;94538.50;4979044;28;20026;-92
2022/06/14 00:04:09;;;;;;;4.15;2.40;;;;;;;20.19;100.00;94533.00;4978946;28;20031;-92
2022/06/14 00:06:35;;;;;;;3.00;2.33;;;;;;;19.91;100.00;94540.69;4962742;28;20062;-92
2022/06/14 00:09:01;;;;;;;5.13;2.33;;;;;;;19.92;100.00;94532.38;4978749;28;20097;-92
2022/06/14 00:11:36;;;;;;;3.83;2.30;;;;;;;20.15;100.00;94529.44;4962905;28;20089;-92
2022/06/14 00:14:03;;;;;;;3.60;2.00;;;;;;;20.26;100.00;94529.06;4978664;28;20073;-92
2022/06/14 00:16:30;;;;;;;4.82;2.10;;;;;;;20.26;100.00;94531.72;4962639;28;20058;-92
2022/06/14 00:18:55;;;;;;;3.40;2.05;;;;;;;20.25;100.00;94536.25;4978534;28;20486;-92
2022/06/14 00:21:21;;;;;;;6.35;2.00;;;;;;;19.89;100.00;94526.94;4962806;28;20113;-91
2022/06/14 00:23:47;;;;;;;4.80;2.10;;;;;;;19.94;100.00;94532.06;4978612;28;20031;-92
2022/06/14 00:26:13;;;;;;;3.70;1.90;;;;;;;20.10;100.00;94526.97;4962411;28;20035;-91
2022/06/14 00:28:40;;;;;;;2.63;1.98;;;;;;;20.09;100.00;94532.59;4978426;28;20113;-92
2022/06/14 00:31:15;;;;;;;3.60;1.90;;;;;;;20.23;100.00;94532.34;4978588;28;20073;-91
2022/06/14 00:33:41;;;;;;;3.13;1.98;;;;;;;20.34;100.00;94530.84;4962539;28;20030;-93
2022/06/14 00:36:10;;;;;;;3.95;1.95;;;;;;;20.46;100.00;94536.22;4978213;28;20027;-92
2022/06/14 00:38:37;;;;;;;3.53;1.95;;;;;;;20.39;100.00;94522.69;4978193;28;20027;-92
2022/06/14 00:41:05;;;;;;;4.97;1.80;;;;;;;20.41;100.00;94528.47;4978251;28;20022;-92
2022/06/14 00:43:34;;;;;;;3.30;2.20;;;;;;;20.38;100.00;94529.13;4962397;28;20362;-91
2022/06/14 00:46:19;;;;;;;4.82;2.00;;;;;;;20.38;100.00;94531.78;4978169;28;20030;-91
2022/06/14 00:48:54;;;;;;;4.25;1.77;;;;;;;20.53;100.00;94529.63;4978009;28;20030;-92
2022/06/14 00:51:24;;;;;;;4.63;2.10;;;;;;;20.58;100.00;94532.84;4978011;28;20030;-92
2022/06/14 00:53:58;;;;;;;5.55;2.10;;;;;;;20.60;100.00;94527.19;4962127;28;20022;-92
2022/06/14 00:56:46;;;;;;;6.93;2.28;;;;;;;20.57;100.00;94525.94;4978017;28;20048;-91
2022/06/14 00:59:15;;;;;;;2.35;2.00;;;;;;;20.49;100.00;94532.91;4978546;28;20070;-92
2022/06/14 01:01:43;;;;;;;2.17;1.70;;;;;;;20.55;100.00;94530.81;4979013;28;20113;-92
2022/06/14 01:04:20;;;;;;;3.38;1.63;;;;;;;20.46;100.00;94535.47;4978932;28;20029;-92
2022/06/14 01:06:50;;;;;;;8.70;2.25;;;;;;;20.34;100.00;94534.31;4977741;28;20077;-92
2022/06/14 01:09:21;;;;;;;4.40;1.90;;;;;;;20.34;100.00;94528.19;4961780;28;20072;-91
2022/06/14 01:12:01;;;;;;;6.25;1.80;;;;;;;20.41;100.00;94533.00;4978860;28;20031;-91
2022/06/14 01:14:35;;;;;;;4.20;1.90;;;;;;;20.29;100.00;94534.47;4977612;28;20139;-91
2022/06/14 01:17:00;;;;;;;4.82;2.33;;;;;;;20.18;100.00;94528.00;4977552;28;20027;-91
2022/06/14 01:19:26;;;;;;;6.47;2.35;;;;;;;20.12;100.00;94537.28;4961542;28;20499;-91
2022/06/14 01:22:04;;;;;;;3.45;1.85;;;;;;;20.05;100.00;94540.44;4961226;28;20033;-92
2022/06/14 01:24:30;;;;;;;7.22;1.83;;;;;;;19.70;100.00;94535.31;4977652;28;20419;-92
2022/06/14 01:26:56;;;;;;;4.72;1.90;;;;;;;19.69;100.00;94531.88;4961396;28;20037;-92
2022/06/14 01:29:23;;;;;;;5.40;2.03;;;;;;;19.48;100.00;94529.97;4976608;28;20027;-92
2022/06/14 01:31:49;;;;;;;6.85;1.90;;;;;;;19.63;100.00;94527.84;4977546;28;20121;-92
2022/06/14 01:34:15;;;;;;;4.38;2.20;;;;;;;19.59;100.00;94533.03;4977292;28;20030;-92
2022/06/14 01:36:41;;;;;;;5.40;2.20;;;;;;;19.26;100.00;94538.16;4977236;28;20037;-92
2022/06/14 01:39:10;;;;;;;11.13;2.40;;;;;;;19.13;100.00;94537.28;4961018;28;20064;-92
2022/06/14 01:42:23;;;;;;;5.53;2.47;;;;;;;19.29;100.00;94540.97;4978310;28;20026;-91
2022/06/14 01:45:04;;;;;;;4.20;2.08;;;;;;;19.41;100.00;94542.94;4922165;29;20048;-91
2022/06/14 01:47:59;;;;;;;3.10;2.00;;;;;;;19.51;100.00;94552.47;4977165;28;20360;-92
2022/06/14 01:54:02;;;;;;;6.07;2.22;;;;;;;19.50;100.00;94550.88;4977119;28;20045;-92
2022/06/14 01:56:52;;;;;;;2.42;1.95;;;;;;;19.70;100.00;94551.28;4977931;28;20039;-91
2022/06/14 01:59:26;;;;;;;3.97;1.90;;;;;;;19.69;100.00;94547.06;4965760;28;20069;-92
2022/06/14 02:02:11;;;;;;;6.25;2.10;;;;;;;19.74;100.00;94552.97;4977089;28;20027;-92
2022/06/14 02:04:40;;;;;;;4.13;2.20;;;;;;;19.76;100.00;94549.97;4966903;28;20041;-92
2022/06/14 02:07:24;;;;;;;3.67;1.80;;;;;;;19.36;100.00;94541.25;4961010;28;20086;-91
2022/06/14 02:10:29;;;;;;;2.63;2.00;;;;;;;19.64;100.00;94546.13;4997051;28;20495;-92
2022/06/14 02:13:01;;;;;;;4.40;2.03;;;;;;;19.54;100.00;94551.81;4994493;28;20046;-91
2022/06/14 02:15:46;;;;;;;4.07;1.95;;;;;;;19.13;100.00;94542.59;4957634;28;20086;-93
2022/06/14 02:18:44;;;;;;;7.78;2.50;;;;;;;19.18;100.00;94548.50;4974919;28;20432;-92
2022/06/14 02:21:23;;;;;;;5.88;2.22;;;;;;;19.28;100.00;94544.72;4986863;28;20416;-91
2022/06/14 02:23:56;;;;;;;5.85;2.47;;;;;;;19.27;100.00;94548.47;4976060;28;20033;-91
2022/06/14 02:26:36;;;;;;;5.70;2.38;;;;;;;19.56;100.00;94538.97;4957294;29;20472;-93
2022/06/14 02:29:16;;;;;;;5.00;2.15;;;;;;;19.49;100.00;94544.00;4941781;29;20023;-92
2022/06/14 02:31:53;;;;;;;8.10;2.03;;;;;;;19.38;100.00;94546.25;4957363;29;20035;-93
2022/06/14 02:34:26;;;;;;;4.65;1.90;;;;;;;19.38;100.00;94546.25;4957378;29;20340;-93
2022/06/14 02:37:01;;;;;;;3.53;2.55;;;;;;;19.46;100.00;94550.75;4957278;29;20126;-92
2022/06/14 02:39:33;;;;;;;6.03;2.30;;;;;;;19.47;100.00;94551.53;4958641;28;20445;-92
2022/06/14 02:42:20;;;;;;;6.07;2.47;;;;;;;19.47;100.00;94544.34;4961058;29;20393;-92
2022/06/14 02:44:51;;;;;;;4.13;2.17;;;;;;;19.43;100.00;94542.63;4960969;29;20047;-92
2022/06/14 02:47:32;;;;;;;3.15;2.08;;;;;;;19.17;100.00;94540.84;4961036;29;20081;-92
2022/06/14 02:50:13;;;;;;;4.07;2.30;;;;;;;19.46;100.00;94544.66;4962164;28;20121;-91
2022/06/14 02:52:46;;;;;;;4.60;2.30;;;;;;;19.31;100.00;94541.44;4961063;28;20421;-92
2022/06/14 02:55:12;;;;;;;4.90;2.17;;;;;;;19.34;100.00;94540.78;4960865;29;20139;-92
2022/06/14 02:57:49;;;;;;;3.92;2.25;;;;;;;18.82;100.00;94544.34;4962203;28;20184;-93
2022/06/14 03:00:19;;;;;;;6.07;2.30;;;;;;;18.43;100.00;94538.13;4960858;28;20401;-94
2022/06/14 03:02:50;;;;;;;9.45;2.60;;;;;;;18.34;100.00;94548.75;4961113;29;20023;-93
2022/06/14 03:05:33;;;;;;;5.90;2.42;;;;;;;18.06;100.00;94549.84;4960815;29;20027;-93
2022/06/14 03:08:03;;;;;;;5.25;2.83;;;;;;;18.18;100.00;94548.44;4960941;28;20027;-92
2022/06/14 03:10:39;;;;;;;4.75;2.22;;;;;;;18.40;100.00;94554.69;4960629;29;20027;-93
2022/06/14 03:13:56;;;;;;;8.38;2.60;;;;;;;18.72;100.00;94556.06;4982893;28;20027;-92
2022/06/14 03:17:08;;;;;;;6.35;2.67;;;;;;;18.54;100.00;94555.28;4959577;28;20448;-92
2022/06/14 03:19:41;;;;;;;11.32;2.47;;;;;;;18.27;100.00;94559.06;4977614;28;20046;-92
2022/06/14 03:22:16;;;;;;;4.60;2.50;;;;;;;18.35;100.00;94561.72;4983143;28;20436;-93
2022/06/14 03:25:20;;;;;;;4.85;2.17;;;;;;;18.43;100.00;94570.75;4983145;28;20030;-92
2022/06/14 03:27:54;;;;;;;4.88;2.47;;;;;;;18.36;100.00;94575.72;4962828;28;20053;-91
2022/06/14 03:30:27;;;;;;;6.65;2.30;;;;;;;18.61;100.00;94578.72;5000024;28;20030;-91
2022/06/14 03:32:59;;;;;;;3.00;2.40;;;;;;;18.76;100.00;94577.47;4983004;28;20035;-92
2022/06/14 03:35:31;;;;;;;6.45;2.83;;;;;;;18.81;100.00;94576.53;4998797;28;20026;-91
2022/06/14 03:38:00;;;;;;;3.05;2.17;;;;;;;18.82;100.00;94575.44;4998847;28;20046;-91
2022/06/14 03:40:25;;;;;;;4.93;2.67;;;;;;;18.90;100.00;94571.97;4999039;28;20376;-91
2022/06/14 03:42:51;;;;;;;3.60;2.42;;;;;;;18.90;100.00;94578.06;4999030;28;20034;-90
2022/06/14 03:45:20;;;;;;;6.47;2.60;;;;;;;18.83;100.00;94577.75;4998821;28;20101;-92
2022/06/14 03:47:45;;;;;;;4.93;2.75;;;;;;;18.79;100.00;94580.28;4998702;28;20050;-92
2022/06/14 03:50:48;;;;;;;2.85;2.05;;;;;;;18.87;100.00;94580.56;4998748;28;20030;-92
2022/06/14 03:53:32;;;;;;;9.00;3.33;;;;;;;18.61;100.00;94599.94;4982109;28;20022;-92
2022/06/14 03:56:37;;;;;;;4.13;2.72;;;;;;;18.98;100.00;94592.41;4998669;28;20073;-92
2022/06/14 03:59:39;;;;;;;7.15;2.80;;;;;;;19.07;100.00;94587.88;4999145;28;20049;-91
2022/06/14 04:02:18;;;;;;;7.75;3.28;;;;;;;18.62;100.00;94601.50;4998532;28;20088;-93
2022/06/14 04:05:00;;;;;;;9.10;3.15;;;;;;;18.47;100.00;94606.16;4982342;28;20463;-92
2022/06/14 04:07:46;;;;;;;8.75;3.03;;;;;;;18.23;100.00;94606.63;4998448;28;20105;-92
2022/06/14 04:10:56;;;;;;;9.35;3.90;;;;;;;18.09;100.00;94618.13;4994351;28;20435;-92
2022/06/14 04:13:44;;;;;;;7.63;3.25;;;;;;;18.12;100.00;94618.59;4969429;28;20043;-92
2022/06/14 04:16:27;;;;;;;9.02;3.28;;;;;;;18.01;100.00;94615.44;4963176;28;20042;-91
2022/06/14 04:19:22;;;;;;;8.13;3.13;;;;;;;18.24;100.00;94624.09;4979766;28;20097;-92
2022/06/14 04:21:56;;;;;;;4.18;3.08;;;;;;;18.40;100.00;94623.66;4979859;28;20034;-91
2022/06/14 04:24:55;;;;;;;8.60;3.22;;;;;;;18.76;100.00;94628.66;4978595;28;20034;-91
2022/06/14 04:27:39;;;;;;;6.70;2.83;;;;;;;18.85;100.00;94633.19;4978609;28;20103;-91
2022/06/14 04:30:13;;;;;;;8.13;3.80;;;;;;;18.65;100.00;94630.84;4979591;28;20058;-91
2022/06/14 04:32:43;;;;;;;5.60;4.05;;;;;;;19.16;100.00;94635.69;4978545;28;20085;-91
2022/06/14 04:35:23;;;;;;;6.93;3.67;;;;;;;18.90;100.00;94636.47;4979670;28;20027;-92
2022/06/14 04:38:26;;;;;;;7.93;4.03;;;;;;;18.59;100.00;94641.91;4979462;28;20082;-91
2022/06/14 04:41:02;;;;;;;9.13;3.85;;;;;;;18.51;100.00;94638.19;4978448;28;20045;-92
2022/06/14 04:43:45;;;;;;;11.82;3.90;;;;;;;18.54;100.00;94634.88;4978279;28;20122;-92
2022/06/14 04:46:17;;;;;;;7.57;3.88;;;;;;;18.45;100.00;94636.78;4978238;28;20034;-92
2022/06/14 04:48:49;;;;;;;10.15;4.05;;;;;;;19.09;100.00;94631.97;4978299;28;20041;-91
2022/06/14 04:51:18;;;;;;;11.52;4.88;;;;;;;19.14;100.00;94639.75;4978240;28;20485;-92
2022/06/14 04:54:32;;;;;;;5.88;4.28;;;;;;;19.48;100.00;94644.22;4978031;28;20445;-92
2022/06/14 04:57:06;;;;;;;6.22;3.80;;;;;;;19.41;100.00;94643.91;4973495;28;20042;-92
2022/06/14 04:59:45;;;;;;;9.85;4.20;;;;;;;19.05;100.00;94643.19;4977990;28;20078;-92
2022/06/14 05:02:28;;;;;;;11.43;3.88;;;;;;;19.46;100.00;94645.63;4977882;28;20026;-93
2022/06/14 05:04:57;;;;;;;7.20;4.00;;;;;;;19.17;100.00;94642.56;4978186;28;20033;-93
2022/06/14 05:07:51;;;;;;;5.22;3.50;;;;;;;19.49;100.00;94645.75;4977794;28;20027;-92
2022/06/14 05:10:42;;;;;;;4.70;3.63;;;;;;;19.88;100.00;94647.66;4977735;28;20019;-92
2022/06/14 05:13:23;;;;;;;4.70;3.35;;;;;;;20.07;100.00;94652.59;4977729;28;20038;-92
2022/06/14 05:15:53;;;;;;;7.38;3.50;;;;;;;20.22;100.00;94658.47;4978822;28;20031;-91
2022/06/14 05:18:42;;;;;;;5.68;3.20;;;;;;;20.38;100.00;94650.72;4977600;28;20031;-92
2022/06/14 05:21:14;;;;;;;7.18;3.80;;;;;;;20.54;100.00;94654.38;4977570;28;20033;-92
2022/06/14 05:23:44;;;;;;;7.80;3.78;;;;;;;20.62;100.00;94655.41;4961639;28;20034;-92
2022/06/14 05:26:22;;;;;;;5.05;3.20;;;;;;;20.57;100.00;94660.94;4977416;28;20031;-91
2022/06/14 05:29:01;;;;;;;7.88;3.50;;;;;;;20.88;100.00;94655.25;4977689;28;20026;-92
2022/06/14 05:31:35;;;;;;;5.35;3.72;;;;;;;20.55;100.00;94666.56;4977629;28;20037;-92
2022/06/14 05:34:09;;;;;;;6.60;3.70;;;;;;;20.19;100.00;94659.91;4961443;28;20436;-92
2022/06/14 05:36:40;;;;;;;6.10;3.28;;;;;;;20.33;100.00;94649.03;4977584;28;20175;-92
2022/06/14 05:39:16;;;;;;;10.65;3.15;;;;;;;20.43;100.00;94661.97;4961248;28;20062;-92
2022/06/14 05:41:53;;;;;;;5.32;3.42;;;;;;;20.43;100.00;94669.94;4961350;28;20057;-92
2022/06/14 05:44:48;;;;;;;16.75;3.75;;;;;;;21.14;100.00;94662.22;4977141;28;20026;-92
2022/06/14 05:47:25;;;;;;;3.97;2.80;;;;;;;21.48;100.00;94662.22;4957078;28;20045;-91
2022/06/14 05:49:56;;;;;;;4.78;3.38;;;;;;;20.88;100.00;94668.56;4977300;28;20034;-92
2022/06/14 05:52:47;;;;;;;3.67;2.78;;;;;;;21.46;100.00;94670.56;4977310;28;20034;-92
2022/06/14 05:55:26;;;;;;;5.38;2.88;;;;;;;21.79;100.00;94676.19;4977383;28;20019;-92
2022/06/14 05:58:06;;;;;;;4.57;2.67;;;;;;;21.86;100.00;94671.88;4961352;28;20031;-92
2022/06/14 06:00:47;;;;;;;3.88;2.85;;;;;;;21.87;100.00;94681.44;4961136;28;20027;-92
2022/06/14 06:03:27;;;;;;;4.60;2.97;;;;;;;21.71;100.00;94667.19;4977863;28;20030;-91
2022/06/14 06:06:05;;;;;;;8.48;3.10;;;;;;;21.64;100.00;94669.56;4977151;28;20030;-92
2022/06/14 06:08:44;;;;;;;7.47;3.00;;;;;;;21.94;100.00;94672.88;4977081;28;20023;-92
2022/06/14 06:11:14;;;;;;;4.07;2.70;;;;;;;21.40;100.00;94684.41;4961392;28;20352;-91
2022/06/14 06:13:46;;;;;;;5.43;2.65;;;;;;;21.80;100.00;94677.75;4961124;28;20038;-92
2022/06/14 06:16:16;;;;;;;4.88;2.63;;;;;;;21.64;100.00;94678.38;4976461;28;20038;-91
2022/06/14 06:18:48;;;;;;;4.55;2.70;;;;;;;21.86;100.00;94687.88;4960880;28;20062;-92
2022/06/14 06:21:37;;;;;;;5.90;2.70;;;;;;;22.20;100.00;94689.66;4976855;28;20049;-92
2022/06/14 06:24:07;;;;;;;6.38;2.50;;;;;;;22.33;100.00;94691.22;4978294;28;20077;-92
2022/06/14 06:26:36;;;;;;;7.78;2.35;;;;;;;21.95;100.00;94692.31;4976638;28;20031;-94
2022/06/14 06:29:15;;;;;;;3.85;2.05;;;;;;;22.01;100.00;94693.66;4976633;28;20019;-92
2022/06/14 06:31:42;;;;;;;4.13;2.50;;;;;;;22.25;100.00;94689.47;4977929;28;20037;-93
2022/06/14 06:34:11;;;;;;;6.45;2.63;;;;;;;22.11;100.00;94698.56;4976646;28;20031;-92
2022/06/14 06:37:06;;;;;;;8.52;2.60;;;;;;;22.42;100.00;94694.56;4977822;28;20034;-93
2022/06/14 06:39:48;;;;;;;4.32;2.60;;;;;;;22.23;100.00;94692.44;4976464;28;20027;-93
2022/06/14 06:42:22;;;;;;;3.58;2.50;;;;;;;22.36;100.00;94697.78;4976884;28;20038;-92
2022/06/14 06:44:54;;;;;;;3.00;2.70;;;;;;;22.53;100.00;94696.81;4977667;28;20436;-93
2022/06/14 06:47:26;;;;;;;3.15;2.40;;;;;;;22.70;100.00;94698.44;4976645;28;20344;-93
2022/06/14 06:50:01;;;;;;;4.32;2.88;;;;;;;22.76;100.00;94702.44;4977812;28;20074;-92
2022/06/14 06:52:36;;;;;;;11.45;2.60;;;;;;;23.02;100.00;94698.56;4977664;28;20030;-93
2022/06/14 06:55:07;;;;;;;6.07;2.30;;;;;;;22.83;100.00;94704.53;4977617;28;20511;-90
2022/06/14 06:57:34;;;;;;;6.97;2.80;;;;;;;22.70;100.00;94704.56;4976436;28;20114;-93
2022/06/14 07:00:00;;;;;;;6.65;3.25;;;;;;;22.72;100.00;94698.88;4976363;28;20030;-92
2022/06/14 07:02:39;;;;;;;3.58;2.40;;;;;;;23.21;100.00;94699.88;4976284;28;20038;-93
2022/06/14 07:05:09;;;;;;;7.00;3.45;;;;;;;23.18;100.00;94708.56;4976496;28;20027;-91
2022/06/14 07:07:47;;;;;;;;;;;;;;;;;;;;;
2022/06/14 07:10:18;;;;;;;6.20;2.20;;;;;;;23.66;100.00;94711.38;4976798;28;20019;-90
2022/06/14 07:12:53;;;;;;;7.22;2.97;;;;;;;23.63;100.00;94706.72;4961066;28;20030;-93
2022/06/14 07:15:37;;;;;;;6.72;2.58;;;;;;;23.44;100.00;94716.16;4961399;28;20339;-92
2022/06/14 07:18:05;;;;;;;5.80;2.45;;;;;;;23.55;100.00;94716.44;4960630;28;20035;-93
2022/06/14 07:20:48;;;;;;;3.95;2.60;;;;;;;23.26;100.00;94716.47;4977595;28;20027;-90
2022/06/14 07:23:34;;;;;;;6.20;2.70;;;;;;;23.76;100.00;94720.81;4961506;28;20480;-92
2022/06/14 07:26:11;;;;;;;5.20;2.15;;;;;;;24.05;100.00;94719.66;4980330;28;20038;-92
2022/06/14 07:28:55;;;;;;;3.17;2.25;;;;;;;23.83;100.00;94712.94;4980847;28;20030;-91
2022/06/14 07:31:52;;;;;;;5.18;2.40;;;;;;;23.82;100.00;94712.19;4981093;28;20321;-91
2022/06/14 07:34:55;;;;;;;8.80;2.97;;;;;;;23.88;100.00;94718.03;4979552;28;20070;-91
2022/06/14 07:37:42;;;;;;;4.30;2.50;;;;;;;23.65;100.00;94715.97;4979640;28;20030;-90
2022/06/14 07:40:17;;;;;;;4.63;2.33;;;;;;;23.95;100.00;94717.44;4979943;28;20364;-92
2022/06/14 07:42:54;;;;;;;6.93;2.20;;;;;;;24.06;99.43;94715.84;4980711;28;20073;-91
2022/06/14 07:45:31;;;;;;;7.10;2.50;;;;;;;24.13;91.65;94721.38;4979692;28;20042;-91
2022/06/14 07:48:05;;;;;;;5.30;2.10;;;;;;;24.42;93.08;94710.56;4963444;28;20026;-92
2022/06/14 07:50:45;;;;;;;5.20;2.33;;;;;;;24.04;75.53;94725.34;4980369;28;20083;-90
2022/06/14 07:53:21;;;;;;;7.15;2.55;;;;;;;23.73;80.62;94728.38;4963425;28;20495;-91
2022/06/14 07:55:54;;;;;;;5.63;2.38;;;;;;;24.17;84.50;94718.78;4979498;28;20030;-91
2022/06/14 07:58:27;;;;;;;4.90;2.47;;;;;;;24.01;76.28;94718.75;4979147;28;20023;-92
2022/06/14 08:01:08;;;;;;;5.22;2.40;;;;;;;23.92;78.56;94726.16;4963239;28;20026;-90
2022/06/14 08:03:54;;;;;;;6.07;2.70;;;;;;;24.03;83.75;94729.13;4964755;28;20031;-90
2022/06/14 08:06:27;;;;;;;8.15;2.60;;;;;;;24.19;88.12;94727.25;4980099;28;20027;-92
2022/06/14 08:09:00;;;;;;;3.13;2.60;;;;;;;24.32;86.68;94722.56;4963144;28;20034;-91
2022/06/14 08:11:34;;;;;;;3.47;2.50;;;;;;;24.43;85.97;94728.16;4979129;28;20433;-90
2022/06/14 08:14:14;;;;;;;;;;;;;;;;;;;;;
2022/06/14 08:16:44;;;;;;;5.40;2.58;;;;;;;24.27;88.52;94733.56;4978933;28;20022;-92
2022/06/14 08:19:21;;;;;;;10.93;2.80;;;;;;;24.16;93.34;94722.56;4978860;28;20114;-90
2022/06/14 08:21:49;;;;;;;4.63;2.72;;;;;;;24.51;100.00;94727.22;4979427;28;20027;-92
2022/06/14 08:24:24;;;;;;;6.00;2.85;;;;;;;24.79;92.29;94725.53;4978866;28;20475;-90
2022/06/14 08:27:14;;;;;;;5.82;3.05;;;;;;;24.98;100.00;94732.84;4978698;28;20053;-91
2022/06/14 08:29:39;;;;;;;5.03;2.60;;;;;;;25.08;100.00;94734.97;4978648;28;20026;-92
2022/06/14 08:32:30;;;;;;;5.00;2.70;;;;;;;24.90;100.00;94734.59;4978928;28;20030;-91
2022/06/14 08:35:06;;;;;;;9.00;3.03;;;;;;;24.75;100.00;94741.53;4971935;28;20046;-91
2022/06/14 08:38:05;;;;;;;4.45;3.05;;;;;;;24.92;100.00;94739.63;4962408;28;20325;-90
2022/06/14 08:40:48;;;;;;;6.22;3.40;;;;;;;24.79;100.00;94739.72;4962376;28;20336;-92
2022/06/14 08:43:21;;;;;;;5.28;3.20;;;;;;;24.66;100.00;94741.69;4962446;28;20033;-92
2022/06/14 08:46:05;;;;;;;6.13;3.10;;;;;;;25.21;100.00;94740.97;4978237;28;20022;-91
2022/06/14 08:48:33;;;;;;;;;;;;;;;25.43;100.00;94746.75;4978647;28;20125;-90
2022/06/14 08:51:01;;;;;;;5.95;3.03;;;;;;;25.35;100.00;94745.84;4979324;28;19910;-92
2022/06/14 08:53:36;;;;;;;7.60;2.88;;;;;;;25.31;100.00;94746.91;4979234;28;20030;-92
2022/06/14 08:56:37;;;;;;;7.35;2.97;;;;;;;25.33;100.00;94748.09;4978299;28;20029;-90
2022/06/14 08:59:24;;;;;;;6.88;3.58;;;;;;;24.83;100.00;94748.59;4973928;28;20053;-90
2022/06/14 09:02:06;;;;;;;4.18;3.35;;;;;;;24.93;100.00;94744.59;4978135;28;20344;-91
2022/06/14 09:05:26;;;;;;;5.75;3.28;;;;;;;25.34;100.00;94755.03;4978260;28;20031;-91
2022/06/14 09:08:16;;;;;;;5.28;3.42;;;;;;;25.39;100.00;94754.72;4938556;29;20058;-91
2022/06/14 09:11:20;;;;;;;4.28;3.03;;;;;;;25.39;100.00;94757.41;4978384;28;20101;-92
2022/06/14 09:14:31;;;;;;;11.15;3.53;;;;;;;25.49;100.00;94756.09;4979013;28;20109;-89
2022/06/14 09:17:27;;;;;;;5.97;3.97;;;;;;;24.90;100.00;94760.63;4977777;28;20332;-90
2022/06/14 09:20:03;;;;;;;28.85;4.72;;;;;;;25.11;100.00;94752.25;4978958;28;20054;-90
2022/06/14 09:22:39;;;;;;;4.47;3.70;;;;;;;25.30;100.00;94756.06;4961874;28;20030;-89
2022/06/14 09:25:11;;;;;;;6.10;3.22;;;;;;;24.94;100.00;94754.19;4961754;28;20039;-90
2022/06/14 09:27:48;;;;;;;5.63;3.15;;;;;;;25.12;100.00;94759.19;4978055;28;20045;-90
2022/06/14 09:30:28;;;;;;;6.35;3.92;;;;;;;25.33;100.00;94758.06;4979114;28;20121;-90
2022/06/14 09:33:17;;;;;;;6.50;3.80;;;;;;;25.33;100.00;94752.69;4977979;28;20085;-89
2022/06/14 09:35:52;;;;;;;7.57;4.10;;;;;;;25.37;100.00;94765.03;4962317;28;20090;-90
2022/06/14 09:38:17;;;;;;;11.65;4.40;;;;;;;25.01;100.00;94750.88;4978092;28;20031;-88
2022/06/14 09:41:07;;;;;;;6.28;4.13;;;;;;;25.12;100.00;94759.19;4979373;28;20416;-90
2022/06/14 09:43:36;;;;;;;9.20;3.42;;;;;;;25.10;100.00;94761.41;4962085;28;20073;-89
2022/06/14 09:46:13;;;;;;;8.85;3.53;;;;;;;25.24;100.00;94760.94;4978886;28;20031;-91
2022/06/14 09:49:07;;;;;;;7.30;4.20;;;;;;;25.47;100.00;94747.59;4978868;28;20077;-89
2022/06/14 09:52:10;;;;;;;9.52;4.18;;;;;;;25.30;100.00;94751.47;4977253;28;20037;-92
2022/06/14 09:55:17;;;;;;;7.10;4.15;;;;;;;25.25;100.00;94744.50;4978589;28;20045;-91
2022/06/14 09:57:52;;;;;;;11.60;4.10;;;;;;;25.24;100.00;94750.97;4959091;28;20361;-91
2022/06/14 10:00:17;;;;;;;8.55;4.00;;;;;;;25.60;100.00;94748.25;4978067;28;20104;-90
2022/06/14 10:03:01;;;;;;;4.38;3.42;;;;;;;25.73;100.00;94754.25;4978053;28;20113;-91
2022/06/14 10:05:38;;;;;;;;;;;;;;;25.80;100.00;94753.59;4977566;28;20062;-91
2022/06/14 10:08:17;;;;;;;6.88;3.95;;;;;;;25.38;100.00;94752.41;4978237;28;19996;-91
2022/06/14 10:10:51;;;;;;;5.78;3.90;;;;;;;25.44;100.00;94742.94;4976647;28;20096;-92
2022/06/14 10:13:22;;;;;;;9.23;4.53;;;;;;;25.41;100.00;94747.09;4977303;28;20042;-88
2022/06/14 10:16:00;;;;;;;7.50;4.68;;;;;;;25.21;100.00;94753.59;4977862;28;20039;-91
2022/06/14 10:18:50;;;;;;;7.25;4.30;;;;;;;25.66;100.00;94748.72;4976703;28;20034;-91
2022/06/14 10:21:22;;;;;;;7.15;4.60;;;;;;;26.00;100.00;94751.66;4978144;28;20400;-90
2022/06/14 10:23:53;;;;;;;9.10;4.00;;;;;;;25.85;100.00;94752.53;4977838;28;20038;-88
2022/06/14 10:29:32;;;;;;;6.35;3.75;;;;;;;25.19;100.00;94753.19;4977788;28;20105;-91
2022/06/14 10:32:41;;;;;;;8.00;3.85;;;;;;;26.02;100.00;94749.38;4977786;28;20036;-90
2022/06/14 10:35:15;;;;;;;7.88;4.00;;;;;;;26.10;100.00;94744.91;4958821;28;20049;-92
2022/06/14 10:37:56;;;;;;;8.13;4.50;;;;;;;26.24;100.00;94739.00;4976664;28;20408;-89
2022/06/14 10:40:41;;;;;;;7.93;4.00;;;;;;;26.03;100.00;94745.56;4960866;28;20035;-90
2022/06/14 10:43:27;;;;;;;11.63;4.50;;;;;;;26.30;100.00;94742.19;4976549;28;20035;-91
2022/06/14 10:46:01;;;;;;;6.75;3.75;;;;;;;26.14;100.00;94739.59;4976887;28;20054;-92
2022/06/14 10:49:04;;;;;;;12.05;3.83;;;;;;;25.95;100.00;94743.88;4978242;28;20349;-90
2022/06/14 10:51:49;;;;;;;8.15;4.35;;;;;;;25.53;100.00;94746.19;4962979;28;20365;-93
2022/06/14 10:54:24;;;;;;;8.73;3.92;;;;;;;25.82;100.00;94752.13;4960643;28;20035;-89
2022/06/14 10:56:58;;;;;;;7.07;4.10;;;;;;;26.14;100.00;94744.97;4976690;28;20038;-91
2022/06/14 10:59:49;;;;;;;11.02;4.13;;;;;;;26.31;100.00;94743.72;4977330;28;20388;-92
2022/06/14 11:02:51;;;;;;;9.02;3.70;;;;;;;26.64;100.00;94739.63;4977711;28;20035;-93
2022/06/14 11:05:21;;;;;;;8.20;3.72;;;;;;;26.32;100.00;94745.28;4981200;28;20031;-90
2022/06/14 11:08:10;;;;;;;11.25;4.20;;;;;;;26.10;100.00;94742.22;4964243;28;20058;-91
2022/06/14 11:11:00;;;;;;;7.50;3.45;;;;;;;26.44;100.00;94749.69;4979981;28;20355;-91
2022/06/14 11:13:52;;;;;;;8.68;3.38;;;;;;;26.70;100.00;94742.78;4981128;28;20089;-91
2022/06/14 11:16:20;;;;;;;8.20;3.40;;;;;;;27.37;100.00;94747.53;4962498;28;20061;-90
2022/06/14 11:19:01;;;;;;;8.75;3.38;;;;;;;26.73;100.00;94740.13;4980164;28;20093;-90
2022/06/14 11:21:52;;;;;;;5.22;2.90;;;;;;;26.98;100.00;94741.66;4981060;28;20030;-90
2022/06/14 11:24:24;;;;;;;9.80;4.28;;;;;;;25.81;100.00;94760.50;4979786;28;20073;-90
2022/06/14 11:27:03;;;;;;;12.18;3.40;;;;;;;26.77;100.00;94742.88;4979890;28;20089;-91
2022/06/14 11:29:43;;;;;;;8.40;3.17;;;;;;;26.88;100.00;94741.16;4963576;28;20027;-90
2022/06/14 11:32:20;;;;;;;14.25;3.15;;;;;;;26.98;100.00;94744.34;4979786;28;20061;-89
2022/06/14 11:35:09;;;;;;;6.25;3.22;;;;;;;26.60;100.00;94750.31;4985611;28;20022;-90
2022/06/14 11:38:08;;;;;;;8.32;2.85;;;;;;;26.98;100.00;94752.41;4968607;28;20054;-90
2022/06/14 11:40:36;;;;;;;7.53;3.10;;;;;;;26.84;100.00;94748.38;4951983;28;20030;-90
2022/06/14 11:43:31;;;;;;;9.35;2.90;;;;;;;26.89;100.00;94748.06;4979420;28;20066;-92
2022/06/14 11:46:04;;;;;;;6.72;3.10;;;;;;;27.28;100.00;94746.25;4990490;28;20424;-89
2022/06/14 11:48:46;;;;;;;4.65;2.85;;;;;;;27.06;100.00;94749.47;4990096;28;20353;-88
2022/06/14 11:51:27;;;;;;;7.67;3.27;;;;;;;27.39;100.00;94749.81;4983465;28;20057;-90
2022/06/14 11:53:59;;;;;;;9.48;3.40;;;;;;;26.98;100.00;94745.13;4999849;28;20038;-90
2022/06/14 11:56:26;;;;;;;7.95;3.40;;;;;;;27.31;100.00;94740.91;5000332;28;20399;-91
2022/06/14 11:59:05;;;;;;;7.70;3.42;;;;;;;27.47;100.00;94739.91;4998324;28;20122;-90
2022/06/14 12:01:52;;;;;;;8.13;3.88;;;;;;;27.63;100.00;94740.53;4959418;29;20035;-90
2022/06/14 12:04:33;;;;;;;9.38;3.53;;;;;;;27.46;100.00;94739.16;4959324;28;20326;-90
2022/06/14 12:07:08;;;;;;;7.20;3.40;;;;;;;27.75;100.00;94739.50;4979207;28;20086;-90
2022/06/14 12:10:16;;;;;;;7.05;2.97;;;;;;;27.74;100.00;94732.56;4978968;28;20023;-92
2022/06/14 12:13:15;;;;;;;7.68;2.85;;;;;;;27.18;100.00;94735.00;4952492;28;20038;-90
2022/06/14 12:15:54;;;;;;;11.95;3.53;;;;;;;27.51;100.00;94730.00;4978787;28;20027;-90
2022/06/14 12:18:22;;;;;;;10.27;3.67;;;;;;;27.64;100.00;94733.22;4979875;28;20037;-90
2022/06/14 12:22:26;;;;;;;8.60;3.70;;;;;;;26.98;100.00;94720.91;4978970;28;20030;-91
2022/06/14 12:27:31;;;;;;;10.43;3.70;;;;;;;27.78;100.00;94722.59;4907165;29;20497;-90
2022/06/14 12:29:58;;;;;;;8.48;3.20;;;;;;;27.77;100.00;94725.69;4978212;28;20042;-91
2022/06/14 12:32:39;;;;;;;7.30;3.55;;;;;;;27.88;100.00;94725.78;4981356;28;20109;-88
2022/06/14 12:35:11;;;;;;;14.07;4.05;;;;;;;27.64;100.00;94717.88;4981414;28;20420;-92